createdAt,value
2023-01-12T00:02:15.462Z,100521.34
2023-01-12T00:04:45.315Z,100540.69
2023-01-12T00:07:15.995Z,100499.63
2023-01-12T00:09:43.997Z,100507.91
2023-01-12T00:12:13.207Z,100497.28
2023-01-12T00:14:41.437Z,100504.03
2023-01-12T00:17:11.871Z,100496.97
2023-01-12T00:19:40.236Z,100489.28
2023-01-12T00:22:11.555Z,100508.13
2023-01-12T00:24:41.667Z,100506.03
2023-01-12T00:27:11.430Z,100530.91
2023-01-12T00:29:40.298Z,100491.00
2023-01-12T00:32:12.488Z,100500.19
2023-01-12T00:34:40.415Z,100494.56
2023-01-12T00:37:10.148Z,100488.31
2023-01-12T00:39:43.072Z,100487.06
2023-01-12T00:42:36.923Z,100482.31
2023-01-12T00:45:24.786Z,100490.31
2023-01-12T00:47:53.449Z,100476.91
2023-01-12T00:50:21.412Z,100481.47
2023-01-12T00:52:50.653Z,100478.97
2023-01-12T00:55:18.793Z,100478.47
2023-01-12T00:57:46.688Z,100497.53
2023-01-12T01:00:15.777Z,100479.28
2023-01-12T01:02:43.670Z,100485.41
2023-01-12T01:05:11.655Z,100492.00
2023-01-12T01:07:39.643Z,100485.72
2023-01-12T01:10:10.301Z,100468.75
2023-01-12T01:12:38.194Z,100474.88
2023-01-12T01:15:06.919Z,100463.34
2023-01-12T01:17:35.180Z,100464.34
2023-01-12T01:20:05.014Z,100470.13
2023-01-12T01:22:32.896Z,100453.09
2023-01-12T01:25:00.758Z,100461.13
2023-01-12T01:27:29.972Z,100465.78
2023-01-12T01:29:57.810Z,100456.66
2023-01-12T01:32:26.804Z,100446.88
2023-01-12T01:34:54.653Z,100442.38
2023-01-12T01:37:22.950Z,100466.16
2023-01-12T01:39:50.787Z,100442.56
2023-01-12T01:42:28.851Z,100447.06
2023-01-12T01:45:00.564Z,100445.47
2023-01-12T01:47:35.430Z,100445.28
2023-01-12T01:50:07.063Z,100435.75
2023-01-12T01:52:38.595Z,100427.28
2023-01-12T01:55:09.667Z,100428.28
2023-01-12T01:57:44.192Z,100427.41
2023-01-12T02:00:15.121Z,100423.13
2023-01-12T02:02:45.153Z,100420.19
2023-01-12T02:05:18.744Z,100416.09
2023-01-12T02:07:46.747Z,100413.22
2023-01-12T02:10:15.112Z,100405.41
2023-01-12T02:13:00.743Z,100399.81
2023-01-12T02:16:05.409Z,100395.03
2023-01-12T02:18:37.490Z,100385.66
2023-01-12T02:21:21.580Z,100388.75
2023-01-12T02:24:28.215Z,100373.50
2023-01-12T02:27:14.149Z,100376.03
2023-01-12T02:30:07.721Z,100374.50
2023-01-12T02:32:45.300Z,100359.13
2023-01-12T02:35:22.597Z,100364.28
2023-01-12T02:37:59.863Z,100350.56
2023-01-12T02:40:36.087Z,100338.19
2023-01-12T02:43:09.154Z,100355.84
2023-01-12T02:45:43.359Z,100358.19
2023-01-12T02:48:18.325Z,100349.66
2023-01-12T02:50:52.339Z,100350.34
2023-01-12T02:53:25.627Z,100331.72
2023-01-12T02:55:54.475Z,100324.78
2023-01-12T02:58:25.360Z,100321.75
2023-01-12T03:00:57.250Z,100308.88
2023-01-12T03:03:27.500Z,100300.22
2023-01-12T03:05:57.011Z,100310.28
2023-01-12T03:08:28.979Z,100303.25
2023-01-12T03:11:15.088Z,100279.69
2023-01-12T03:13:48.557Z,100289.69
2023-01-12T03:16:20.073Z,100284.91
2023-01-12T03:18:55.590Z,100279.09
2023-01-12T03:21:30.636Z,100271.84
2023-01-12T03:24:03.694Z,100265.94
2023-01-12T03:26:35.201Z,100257.63
2023-01-12T03:29:09.423Z,100256.28
2023-01-12T03:31:38.720Z,100244.41
2023-01-12T03:34:08.659Z,100250.00
2023-01-12T03:36:47.079Z,100247.59
2023-01-12T03:39:22.880Z,100236.56
2023-01-12T03:41:58.373Z,100241.50
2023-01-12T03:44:35.772Z,100227.94
2023-01-12T03:47:10.300Z,100220.97
2023-01-12T03:49:46.957Z,100210.63
2023-01-12T03:52:16.744Z,100196.88
2023-01-12T03:54:47.612Z,100206.25
2023-01-12T03:57:16.906Z,100208.25
2023-01-12T03:59:45.164Z,100227.84
2023-01-12T04:02:14.424Z,100196.34
2023-01-12T04:04:43.652Z,100198.56
2023-01-12T04:07:11.563Z,100193.97
2023-01-12T04:09:39.519Z,100177.56
2023-01-12T04:12:13.574Z,100172.44
2023-01-12T04:14:43.237Z,100184.84
2023-01-12T04:17:13.275Z,100161.28
2023-01-12T04:19:43.009Z,100168.22
2023-01-12T04:22:32.669Z,100150.25
2023-01-12T04:25:00.503Z,100131.25
2023-01-12T04:27:28.424Z,100108.84
2023-01-12T04:29:56.405Z,100116.97
2023-01-12T04:32:24.300Z,100111.22
2023-01-12T04:34:53.533Z,100105.75
2023-01-12T04:37:21.627Z,100101.88
2023-01-12T04:39:49.662Z,100132.59
2023-01-12T04:42:34.967Z,100108.66
2023-01-12T04:45:02.981Z,100100.56
2023-01-12T04:47:31.093Z,100083.22
2023-01-12T04:50:00.320Z,100063.75
2023-01-12T04:52:28.357Z,100058.16
2023-01-12T04:54:56.955Z,100039.63
2023-01-12T04:57:25.169Z,100024.88
2023-01-12T04:59:53.116Z,100021.63
2023-01-12T05:02:21.342Z,99992.44
2023-01-12T05:04:49.569Z,99979.94
2023-01-12T05:07:18.873Z,99976.25
2023-01-12T05:10:04.148Z,99947.75
2023-01-12T05:12:32.093Z,99929.41
2023-01-12T05:14:59.975Z,99908.94
2023-01-12T05:17:28.645Z,99903.16
2023-01-12T05:19:56.554Z,99896.38
2023-01-12T05:22:25.871Z,99886.22
2023-01-12T05:24:53.789Z,99873.88
2023-01-12T05:27:21.681Z,99852.94
2023-01-12T05:29:49.824Z,99865.66
2023-01-12T05:32:17.876Z,99855.38
2023-01-12T05:34:45.715Z,99839.81
2023-01-12T05:37:13.678Z,99849.13
2023-01-12T05:39:43.075Z,99834.25
2023-01-12T05:42:28.352Z,99831.53
2023-01-12T05:44:56.364Z,99829.34
2023-01-12T05:47:24.437Z,99827.81
2023-01-12T05:49:52.348Z,99841.22
2023-01-12T05:52:20.360Z,99828.03
2023-01-12T05:54:49.796Z,99823.81
2023-01-12T05:57:17.753Z,99834.69
2023-01-12T05:59:45.768Z,99828.19
2023-01-12T06:02:17.446Z,99816.03
2023-01-12T06:04:45.840Z,99825.97
2023-01-12T06:07:14.683Z,99809.31
2023-01-12T06:09:43.231Z,99820.19
2023-01-12T06:12:30.823Z,99801.88
2023-01-12T06:14:58.874Z,99792.63
2023-01-12T06:17:26.839Z,99792.78
2023-01-12T06:19:55.150Z,99770.94
2023-01-12T06:22:23.103Z,99784.00
2023-01-12T06:24:51.056Z,99797.66
2023-01-12T06:27:20.360Z,99808.50
2023-01-12T06:29:49.461Z,99797.66
2023-01-12T06:32:17.345Z,99791.94
2023-01-12T06:34:45.301Z,99786.66
2023-01-12T06:37:13.244Z,99790.72
2023-01-12T06:39:41.207Z,99786.59
2023-01-12T06:42:26.717Z,99789.72
2023-01-12T06:44:56.558Z,99790.84
2023-01-12T06:47:24.609Z,99792.78
2023-01-12T06:49:52.869Z,99809.03
2023-01-12T06:52:21.806Z,99799.19
2023-01-12T06:54:49.795Z,99787.09
2023-01-12T06:57:17.946Z,99793.72
2023-01-12T06:59:46.114Z,99798.44
2023-01-12T07:02:17.016Z,99787.03
2023-01-12T07:04:45.412Z,99784.75
2023-01-12T07:07:13.402Z,99791.53
2023-01-12T07:09:41.477Z,99790.00
2023-01-12T07:12:09.685Z,99786.22
2023-01-12T07:14:37.811Z,99792.25
2023-01-12T07:17:05.715Z,99795.13
2023-01-12T07:19:35.072Z,99795.22
2023-01-12T07:22:03.143Z,99786.94
2023-01-12T07:24:31.244Z,99796.94
2023-01-12T07:26:59.415Z,99793.13
2023-01-12T07:29:27.399Z,99796.00
2023-01-12T07:31:55.550Z,99784.66
2023-01-12T07:34:23.735Z,99816.19
2023-01-12T07:36:53.425Z,99800.50
2023-01-12T07:39:21.455Z,99804.97
2023-01-12T07:42:06.780Z,99810.06
2023-01-12T07:44:36.642Z,99813.09
2023-01-12T07:47:04.737Z,99823.00
2023-01-12T07:49:32.682Z,99824.59
2023-01-12T07:52:01.991Z,99844.69
2023-01-12T07:54:30.646Z,99853.97
2023-01-12T07:56:59.387Z,99837.16
2023-01-12T07:59:27.593Z,99825.88
2023-01-12T08:01:55.650Z,99825.19
2023-01-12T08:04:24.238Z,99831.94
2023-01-12T08:06:52.238Z,99837.97
2023-01-12T08:09:21.743Z,99834.59
2023-01-12T08:11:49.844Z,99815.56
2023-01-12T08:14:27.459Z,99843.81
2023-01-12T08:17:01.468Z,99851.22
2023-01-12T08:19:37.158Z,99858.53
2023-01-12T08:22:09.678Z,99854.06
2023-01-12T08:24:45.601Z,99860.03
2023-01-12T08:27:13.839Z,99844.66
2023-01-12T08:29:46.385Z,99866.44
2023-01-12T08:32:17.952Z,99924.41
2023-01-12T08:34:49.396Z,99882.09
2023-01-12T08:37:21.232Z,99865.47
2023-01-12T08:39:51.868Z,99857.63
2023-01-12T08:42:20.380Z,99890.16
2023-01-12T08:44:48.304Z,99874.78
2023-01-12T08:47:19.069Z,99891.28
2023-01-12T08:49:47.419Z,99871.50
2023-01-12T08:52:16.667Z,99886.06
2023-01-12T08:54:45.005Z,99893.38
2023-01-12T08:57:16.170Z,99892.91
2023-01-12T08:59:44.199Z,99902.38
2023-01-12T09:02:12.886Z,99893.38
2023-01-12T09:04:41.089Z,99907.91
2023-01-12T09:07:10.182Z,99899.09
2023-01-12T09:09:38.790Z,99893.78
2023-01-12T09:12:07.413Z,99900.16
2023-01-12T09:14:38.842Z,99902.41
2023-01-12T09:17:07.662Z,99903.50
2023-01-12T09:19:35.631Z,99920.09
2023-01-12T09:22:03.883Z,99913.63
2023-01-12T09:24:31.804Z,99938.59
2023-01-12T09:27:00.166Z,99949.41
2023-01-12T09:29:28.193Z,99946.38
2023-01-12T09:31:57.618Z,99968.09
2023-01-12T09:34:25.802Z,99947.34
2023-01-12T09:36:56.206Z,99952.31
2023-01-12T09:39:28.482Z,99947.94
2023-01-12T09:42:16.689Z,99957.22
2023-01-12T09:45:07.217Z,99957.50
2023-01-12T09:47:40.140Z,99957.91
2023-01-12T09:50:13.071Z,99957.91
2023-01-12T09:52:45.943Z,99976.97
2023-01-12T09:55:20.697Z,99993.53
2023-01-12T09:58:11.572Z,99985.59
2023-01-12T10:00:39.536Z,100001.72
2023-01-12T10:03:17.057Z,100002.84
2023-01-12T10:05:48.998Z,100008.13
2023-01-12T10:08:27.515Z,99996.78
2023-01-12T10:11:07.682Z,100012.16
2023-01-12T10:14:01.839Z,99998.66
2023-01-12T10:16:34.837Z,100027.66
2023-01-12T10:19:12.190Z,100036.84
2023-01-12T10:21:42.545Z,100034.19
2023-01-12T10:24:13.093Z,100033.81
2023-01-12T10:26:43.766Z,100039.22
2023-01-12T10:29:13.418Z,100050.50
2023-01-12T10:31:41.827Z,100061.38
2023-01-12T10:34:13.144Z,100060.28
2023-01-12T10:36:44.664Z,100061.97
2023-01-12T10:39:30.619Z,100065.28
2023-01-12T10:42:44.033Z,100064.44
2023-01-12T10:45:18.343Z,100075.28
2023-01-12T10:47:47.132Z,100081.97
2023-01-12T10:50:28.859Z,100074.38
2023-01-12T10:53:02.940Z,100103.59
2023-01-12T10:55:33.864Z,100088.03
2023-01-12T10:58:02.907Z,100076.75
2023-01-12T11:00:32.230Z,100078.34
2023-01-12T11:03:00.228Z,100079.56
2023-01-12T11:05:34.229Z,100084.06
2023-01-12T11:08:03.201Z,100079.97
2023-01-12T11:10:33.263Z,100071.66
2023-01-12T11:13:05.963Z,100086.97
2023-01-12T11:15:39.053Z,100078.06
2023-01-12T11:18:32.738Z,100063.59
2023-01-12T11:21:06.775Z,100073.16
2023-01-12T11:23:41.818Z,100072.53
2023-01-12T11:26:18.408Z,100078.50
2023-01-12T11:28:50.086Z,100077.38
2023-01-12T11:31:22.603Z,100067.59
2023-01-12T11:33:54.582Z,100081.72
2023-01-12T11:36:28.286Z,100089.31
2023-01-12T11:39:03.135Z,100068.00
2023-01-12T11:41:38.938Z,100077.88
2023-01-12T11:44:15.344Z,100090.84
2023-01-12T11:46:47.585Z,100084.72
2023-01-12T11:49:23.704Z,100086.53
2023-01-12T11:51:57.123Z,100095.00
2023-01-12T11:54:26.890Z,100077.41
2023-01-12T11:57:13.688Z,100112.94
2023-01-12T11:59:53.650Z,100083.44
2023-01-12T12:02:34.064Z,100078.66
2023-01-12T12:05:13.390Z,100071.22
2023-01-12T12:07:58.912Z,100096.69
2023-01-12T12:10:36.005Z,100098.41
2023-01-12T12:13:20.350Z,100093.88
2023-01-12T12:15:57.025Z,100082.13
2023-01-12T12:18:39.445Z,100093.97
2023-01-12T12:21:15.970Z,100095.09
2023-01-12T12:23:54.251Z,100093.78
2023-01-12T12:26:27.410Z,100091.63
2023-01-12T12:29:14.968Z,100083.44
2023-01-12T12:32:02.913Z,100090.78
2023-01-12T12:34:52.149Z,100099.69
2023-01-12T12:37:31.751Z,100100.47
2023-01-12T12:40:11.968Z,100092.19
2023-01-12T12:43:22.743Z,100092.84
2023-01-12T12:45:56.866Z,100133.66
2023-01-12T12:48:28.999Z,100111.69
2023-01-12T12:51:03.866Z,100102.97
2023-01-12T12:53:35.572Z,100092.06
2023-01-12T12:56:10.169Z,100088.69
2023-01-12T12:58:44.523Z,100079.88
2023-01-12T13:01:55.173Z,100074.63
2023-01-12T13:04:57.667Z,100079.56
2023-01-12T13:07:27.469Z,100083.72
2023-01-12T13:10:10.712Z,100080.91
2023-01-12T13:12:42.263Z,100088.34
2023-01-12T13:15:26.929Z,100074.78
2023-01-12T13:17:55.785Z,100076.78
2023-01-12T13:21:02.474Z,100092.16
2023-01-12T13:23:52.220Z,100067.56
2023-01-12T13:26:52.119Z,100075.72
2023-01-12T13:29:51.458Z,100061.53
2023-01-12T13:32:43.604Z,100065.22
2023-01-12T13:35:29.367Z,100065.13
2023-01-12T13:38:04.719Z,100060.69
2023-01-12T13:40:33.942Z,100055.03
2023-01-12T13:43:16.981Z,100051.75
2023-01-12T13:45:53.541Z,100056.09
2023-01-12T13:48:22.284Z,100058.34
2023-01-12T13:50:53.809Z,100064.91
2023-01-12T13:53:27.620Z,100058.44
2023-01-12T13:55:58.508Z,100043.03
2023-01-12T13:58:27.542Z,100037.09
2023-01-12T14:00:59.804Z,100064.66
2023-01-12T14:03:43.559Z,100063.31
2023-01-12T14:06:24.190Z,100045.78
2023-01-12T14:09:06.752Z,100074.03
2023-01-12T14:11:50.475Z,100046.97
2023-01-12T14:14:53.859Z,100064.09
2023-01-12T14:17:46.282Z,100053.47
2023-01-12T14:20:20.171Z,100057.78
2023-01-12T14:22:48.560Z,100049.78
2023-01-12T14:25:20.472Z,100034.41
2023-01-12T14:27:53.371Z,100044.09
2023-01-12T14:30:22.694Z,100040.78
2023-01-12T14:32:53.735Z,100053.28
2023-01-12T14:35:23.560Z,100038.91
2023-01-12T14:37:53.698Z,100032.69
2023-01-12T14:40:25.459Z,100040.38
2023-01-12T14:43:13.783Z,100042.28
2023-01-12T14:46:13.217Z,100038.72
2023-01-12T14:48:44.066Z,100037.59
2023-01-12T14:51:19.831Z,100041.31
2023-01-12T14:53:49.556Z,100032.88
2023-01-12T14:56:21.982Z,100029.78
2023-01-12T14:58:50.544Z,100032.03
2023-01-12T15:01:36.129Z,100018.97
2023-01-12T15:04:06.904Z,100014.75
2023-01-12T15:06:39.884Z,100022.09
2023-01-12T15:09:23.664Z,100033.00
2023-01-12T15:11:51.528Z,100021.63
2023-01-12T15:14:24.892Z,100015.97
2023-01-12T15:17:11.830Z,100015.22
2023-01-12T15:19:58.798Z,100007.09
2023-01-12T15:22:46.508Z,100025.50
2023-01-12T15:25:38.351Z,100006.13
2023-01-12T15:28:08.690Z,100011.38
2023-01-12T15:30:39.772Z,100004.09
2023-01-12T15:33:07.912Z,100002.13
2023-01-12T15:35:39.839Z,100003.59
2023-01-12T15:38:08.997Z,100002.88
2023-01-12T15:40:37.064Z,99982.75
2023-01-12T15:43:06.625Z,99997.56
2023-01-12T15:45:36.558Z,99991.41
2023-01-12T15:48:06.673Z,99994.44
2023-01-12T15:50:35.731Z,99986.88
2023-01-12T15:53:11.936Z,99973.50
2023-01-12T15:55:40.136Z,99981.25
2023-01-12T15:58:08.438Z,99986.13
2023-01-12T16:00:36.987Z,99991.56
2023-01-12T16:03:06.187Z,99981.38
2023-01-12T16:05:34.493Z,99985.75
2023-01-12T16:08:02.843Z,99983.88
2023-01-12T16:10:32.517Z,99994.13
2023-01-12T16:13:01.966Z,99985.97
2023-01-12T16:15:30.190Z,99985.84
2023-01-12T16:17:58.289Z,99987.25
2023-01-12T16:20:26.740Z,99972.25
2023-01-12T16:22:54.985Z,99978.13
2023-01-12T16:25:22.943Z,99977.22
2023-01-12T16:27:52.661Z,99978.72
2023-01-12T16:30:20.829Z,99973.44
2023-01-12T16:32:49.629Z,99976.94
2023-01-12T16:35:17.964Z,99964.94
2023-01-12T16:37:46.154Z,99964.69
2023-01-12T16:40:14.437Z,99962.75
2023-01-12T16:42:42.415Z,99963.22
2023-01-12T16:45:12.470Z,99960.81
2023-01-12T16:47:40.858Z,99964.91
2023-01-12T16:50:10.041Z,99964.63
2023-01-12T16:52:38.364Z,99951.38
2023-01-12T16:55:07.172Z,99952.34
2023-01-12T16:57:40.436Z,99959.72
2023-01-12T17:00:10.213Z,99976.38
2023-01-12T17:02:40.872Z,99945.03
2023-01-12T17:05:10.182Z,99945.47
2023-01-12T17:07:38.727Z,99941.28
2023-01-12T17:10:07.894Z,99948.06
2023-01-12T17:12:35.801Z,99945.78
2023-01-12T17:15:04.631Z,99939.72
2023-01-12T17:17:33.200Z,99939.97
2023-01-12T17:20:03.443Z,99944.81
2023-01-12T17:22:32.636Z,99932.88
2023-01-12T17:25:00.840Z,99954.69
2023-01-12T17:27:29.012Z,99942.19
2023-01-12T17:29:57.527Z,99949.41
2023-01-12T17:32:25.572Z,99951.22
2023-01-12T17:34:53.613Z,99948.09
2023-01-12T17:37:22.904Z,99960.88
2023-01-12T17:39:51.244Z,99956.72
2023-01-12T17:42:36.954Z,99932.63
2023-01-12T17:45:07.066Z,99931.50
2023-01-12T17:47:35.468Z,99921.28
2023-01-12T17:52:34.656Z,99910.88
2023-01-12T17:55:03.039Z,99912.47
2023-01-12T17:57:32.204Z,99927.19
2023-01-12T18:00:00.223Z,99920.72
2023-01-12T18:02:28.423Z,99915.63
2023-01-12T18:04:57.051Z,99919.59
2023-01-12T18:07:25.065Z,99928.13
2023-01-12T18:09:54.424Z,99922.78
2023-01-12T18:12:24.826Z,99936.59
2023-01-12T18:14:53.237Z,99940.41
2023-01-12T18:17:23.112Z,99931.31
2023-01-12T18:19:51.396Z,99931.22
2023-01-12T18:22:19.710Z,99957.50
2023-01-12T18:24:47.844Z,99911.63
2023-01-12T18:27:17.589Z,99913.66
2023-01-12T18:29:45.886Z,99927.66
2023-01-12T18:32:13.882Z,99929.31
2023-01-12T18:34:42.354Z,99933.84
2023-01-12T18:37:11.608Z,99921.84
2023-01-12T18:39:44.035Z,99927.75
2023-01-12T18:42:30.204Z,99917.06
2023-01-12T18:45:01.103Z,99914.50
2023-01-12T18:47:46.938Z,99909.44
2023-01-12T18:50:32.834Z,99921.91
2023-01-12T18:53:19.958Z,99976.47
2023-01-12T18:55:48.520Z,99909.34
2023-01-12T18:58:16.871Z,99915.16
2023-01-12T19:00:46.405Z,99918.47
2023-01-12T19:03:17.696Z,99917.53
2023-01-12T19:05:55.644Z,99932.00
2023-01-12T19:08:41.408Z,99913.72
2023-01-12T19:11:11.037Z,99914.06
2023-01-12T19:13:57.200Z,99911.72
2023-01-12T19:16:44.969Z,99893.41
2023-01-12T19:19:13.632Z,99902.13
2023-01-12T19:21:59.359Z,99911.72
2023-01-12T19:24:59.492Z,99921.75
2023-01-12T19:27:44.877Z,99904.09
2023-01-12T19:30:13.930Z,99905.53
2023-01-12T19:32:43.989Z,99915.94
2023-01-12T19:35:12.210Z,99928.13
2023-01-12T19:37:42.503Z,99902.69
2023-01-12T19:40:18.365Z,99912.16
2023-01-12T19:43:04.422Z,99914.63
2023-01-12T19:45:32.700Z,99916.91
2023-01-12T19:48:04.070Z,99922.34
2023-01-12T19:50:32.161Z,99901.47
2023-01-12T19:53:00.555Z,99915.53
2023-01-12T19:55:28.673Z,99898.66
2023-01-12T19:57:58.096Z,99896.09
2023-01-12T20:00:27.757Z,99893.31
2023-01-12T20:02:55.879Z,99880.38
2023-01-12T20:05:25.374Z,99891.56
2023-01-12T20:07:54.246Z,99887.78
2023-01-12T20:10:23.605Z,99894.31
2023-01-12T20:12:52.423Z,99898.94
2023-01-12T20:15:21.718Z,99874.81
2023-01-12T20:17:50.501Z,99890.03
2023-01-12T20:20:19.721Z,99894.06
2023-01-12T20:22:51.631Z,99890.88
2023-01-12T20:25:20.094Z,99904.19
2023-01-12T20:27:49.267Z,99890.69
2023-01-12T20:30:32.005Z,99907.94
2023-01-12T20:33:05.101Z,99891.09
2023-01-12T20:35:33.300Z,99889.25
2023-01-12T20:38:04.078Z,99908.69
2023-01-12T20:40:32.369Z,99888.06
2023-01-12T20:43:00.401Z,99881.69
2023-01-12T20:45:28.644Z,99895.34
2023-01-12T20:47:56.659Z,99878.47
2023-01-12T20:50:25.791Z,99881.34
2023-01-12T20:52:54.371Z,99867.66
2023-01-12T20:55:23.962Z,99883.91
2023-01-12T20:57:52.320Z,99861.09
2023-01-12T21:00:21.027Z,99879.22
2023-01-12T21:02:49.080Z,99887.38
2023-01-12T21:05:17.330Z,99899.22
2023-01-12T21:07:45.349Z,99874.25
2023-01-12T21:10:13.343Z,99882.78
2023-01-12T21:12:42.996Z,99880.53
2023-01-12T21:15:13.579Z,99880.91
2023-01-12T21:17:42.769Z,99880.91
2023-01-12T21:20:12.454Z,99878.09
2023-01-12T21:22:40.800Z,99905.03
2023-01-12T21:25:10.879Z,99912.56
2023-01-12T21:27:39.111Z,99895.28
2023-01-12T21:30:11.988Z,99889.47
2023-01-12T21:32:40.728Z,99891.03
2023-01-12T21:35:09.464Z,99877.44
2023-01-12T21:37:37.734Z,99891.81
2023-01-12T21:40:07.362Z,99883.53
2023-01-12T21:42:52.972Z,99887.78
2023-01-12T21:45:23.791Z,99880.25
2023-01-12T21:47:51.862Z,99876.13
2023-01-12T21:50:19.843Z,99893.47
2023-01-12T21:52:48.450Z,99890.38
2023-01-12T21:55:17.285Z,99881.09
2023-01-12T21:57:46.493Z,99878.53
2023-01-12T22:00:16.102Z,99890.88
2023-01-12T22:02:47.158Z,99892.44
2023-01-12T22:05:16.648Z,99886.81
2023-01-12T22:07:44.600Z,99888.16
2023-01-12T22:10:23.363Z,99889.75
2023-01-12T22:12:54.155Z,99907.22
2023-01-12T22:15:22.856Z,99893.50
2023-01-12T22:17:52.192Z,99895.47
2023-01-12T22:20:20.569Z,99887.00
2023-01-12T22:22:49.420Z,99915.81
2023-01-12T22:25:18.869Z,99896.22
2023-01-12T22:27:48.191Z,99909.72
2023-01-12T22:30:18.692Z,99918.53
2023-01-12T22:32:46.924Z,99910.38
2023-01-12T22:35:16.552Z,99902.09
2023-01-12T22:37:44.746Z,99895.34
2023-01-12T22:40:16.820Z,99896.38
2023-01-12T22:43:03.710Z,99943.66
2023-01-12T22:45:35.671Z,99924.69
2023-01-12T22:48:03.943Z,99901.69
2023-01-12T22:50:33.658Z,99899.66
2023-01-12T22:53:01.583Z,99913.66
2023-01-12T22:55:29.997Z,99886.72
2023-01-12T22:57:58.058Z,99891.69
2023-01-12T23:00:26.213Z,99888.41
2023-01-12T23:03:03.395Z,99919.44
2023-01-12T23:05:36.551Z,99908.94
2023-01-12T23:08:07.088Z,99922.13
2023-01-12T23:10:35.794Z,99905.00
2023-01-12T23:13:15.917Z,99910.25
2023-01-12T23:15:49.748Z,99919.41
2023-01-12T23:18:19.405Z,99898.22
2023-01-12T23:20:49.343Z,99915.72
2023-01-12T23:23:18.557Z,99914.75
2023-01-12T23:25:47.170Z,99909.34
2023-01-12T23:28:16.154Z,99911.91
2023-01-12T23:30:44.953Z,99922.59
2023-01-12T23:33:13.071Z,99922.97
2023-01-12T23:35:42.728Z,99906.84
2023-01-12T23:38:15.720Z,99911.00
2023-01-12T23:40:43.611Z,99915.91
2023-01-12T23:43:11.668Z,99924.50
2023-01-12T23:45:39.667Z,99928.31
2023-01-12T23:48:08.227Z,99909.34
2023-01-12T23:50:36.399Z,99925.31
2023-01-12T23:53:04.941Z,99925.41
2023-01-12T23:55:34.570Z,99920.81
2023-01-12T23:58:02.558Z,99940.75
